WXM80 ListenWXM80 Stop

You find our weather info also at:

UK Metoffice

WeatherCloud

Weather Underground

Northeastern Weather Network

AWEKAS

Citizen Weather Observer Program (CWOP)

HAMweather, WeatherForYou, PWS Weather


Weather Underground History page Text

Daily Summary for September 17, 2017 Units:  Metric    English   Both
« Previous Day
Next Day »
Daily Weekly Monthly Yearly Custom
  High: Low: Average:
Temperature: 26.8 °C 18.4 °C 21.3 °C
Dew Point: 22.1 °C 17.4 °C 19.5 °C
Humidity: 98 % 73 % 90 %
Wind Speed: 8.2 km/h 0 km/h 0.8 km/h
Wind Gust: 14.8 km/h - -
Wind:- - ESE
Pressure: 1020.2 hPa 1017.2 hPa -
Precipitation: 0 mm    
Historical Graphs
 
 
Tabular Data for September 17, 2017
Time Temperature Dew Point Pressure Wind Wind Speed Wind Gust Humidity Rainfall Rate (Hourly)
00:01 19.2 °C 18.1 °C 1018.8 hPa Calm     93 % 0 mm
00:06 19.2 °C 18 °C 1018.8 hPa Calm     93 % 0 mm
00:12 19.2 °C 18 °C 1018.8 hPa Calm     93 % 0 mm
00:17 19.1 °C 17.9 °C 1018.8 hPa Calm     93 % 0 mm
00:22 19.1 °C 17.9 °C 1018.8 hPa Calm     93 % 0 mm
00:27 19.1 °C 17.9 °C 1018.8 hPa Calm     93 % 0 mm
00:32 19 °C 17.8 °C 1018.8 hPa Calm     93 % 0 mm
00:37 18.9 °C 17.8 °C 1018.8 hPa Calm     93 % 0 mm
00:47 18.9 °C 17.7 °C 1018.8 hPa Calm     93 % 0 mm
00:52 18.8 °C 17.7 °C 1018.5 hPa Calm     93 % 0 mm
00:57 18.8 °C 17.7 °C 1018.8 hPa Calm     93 % 0 mm
01:02 18.8 °C 17.6 °C 1018.8 hPa Calm     93 % 0 mm
01:07 18.7 °C 17.6 °C 1018.5 hPa Calm     93 % 0 mm
01:13 18.7 °C 17.6 °C 1018.5 hPa Calm     93 % 0 mm
01:18 18.7 °C 17.5 °C 1018.5 hPa Calm     93 % 0 mm
01:23 18.7 °C 17.7 °C 1018.5 hPa Calm     94 % 0 mm
01:28 18.6 °C 17.6 °C 1018.5 hPa Calm     94 % 0 mm
01:33 18.6 °C 17.6 °C 1018.5 hPa Calm     94 % 0 mm
01:38 18.6 °C 17.6 °C 1018.5 hPa Calm     94 % 0 mm
01:43 18.5 °C 17.5 °C 1018.5 hPa Calm     94 % 0 mm
01:48 18.4 °C 17.4 °C 1018.5 hPa Calm     94 % 0 mm
01:53 18.4 °C 17.4 °C 1018.5 hPa Calm     94 % 0 mm
01:58 18.4 °C 17.4 °C 1018.5 hPa Calm     94 % 0 mm
02:03 18.4 °C 17.4 °C 1018.5 hPa Calm     94 % 0 mm
02:08 18.4 °C 17.4 °C 1018.5 hPa Calm     94 % 0 mm
02:13 18.4 °C 17.6 °C 1018.5 hPa Calm     95 % 0 mm
02:19 18.5 °C 17.7 °C 1018.2 hPa Calm     95 % 0 mm
02:24 18.5 °C 17.7 °C 1018.5 hPa Calm     95 % 0 mm
02:29 18.5 °C 17.7 °C 1018.2 hPa Calm     95 % 0 mm
02:34 18.5 °C 17.7 °C 1018.2 hPa Calm     95 % 0 mm
02:39 18.5 °C 17.7 °C 1018.5 hPa Calm     95 % 0 mm
02:44 18.4 °C 17.6 °C 1018.5 hPa Calm     95 % 0 mm
02:49 18.4 °C 17.8 °C 1018.5 hPa Calm     96 % 0 mm
02:54 18.4 °C 17.8 °C 1018.2 hPa Calm     96 % 0 mm
02:59 18.5 °C 17.8 °C 1018.2 hPa Calm     96 % 0 mm
03:04 18.5 °C 17.8 °C 1018.2 hPa Calm     96 % 0 mm
03:09 18.6 °C 17.9 °C 1018.2 hPa Calm     96 % 0 mm
03:14 18.7 °C 18 °C 1018.5 hPa Calm     96 % 0 mm
03:20 18.7 °C 18.1 °C 1018.5 hPa Calm     96 % 0 mm
03:25 18.7 °C 18.1 °C 1018.5 hPa Calm     96 % 0 mm
03:30 18.8 °C 18.3 °C 1018.5 hPa Calm     97 % 0 mm
03:35 18.9 °C 18.4 °C 1018.5 hPa Calm     97 % 0 mm
03:40 18.9 °C 18.4 °C 1018.5 hPa Calm     97 % 0 mm
03:45 18.9 °C 18.4 °C 1018.5 hPa Calm     97 % 0 mm
03:50 19.1 °C 18.6 °C 1018.2 hPa Calm     97 % 0 mm
03:52 19.1 °C 18.6 °C 1018.5 hPa Calm     97 % 0 mm
03:57 19.1 °C 18.6 °C 1018.5 hPa Calm     97 % 0 mm
04:02 19.1 °C 18.6 °C 1018.5 hPa Calm     97 % 0 mm
04:07 19.2 °C 18.7 °C 1018.5 hPa Calm     97 % 0 mm
04:12 19.2 °C 18.7 °C 1018.5 hPa Calm     97 % 0 mm
04:17 19.3 °C 18.8 °C 1018.5 hPa Calm     97 % 0 mm
04:22 19.3 °C 18.8 °C 1018.5 hPa SSW 0.3 km/h   97 % 0 mm
04:27 19.3 °C 18.8 °C 1018.5 hPa Calm     97 % 0 mm
04:33 19.3 °C 18.8 °C 1018.5 hPa Calm     97 % 0 mm
04:38 19.3 °C 18.8 °C 1018.5 hPa Calm     97 % 0 mm
04:43 19.3 °C 18.8 °C 1018.5 hPa Calm     97 % 0 mm
04:48 19.3 °C 18.8 °C 1018.5 hPa Calm     97 % 0 mm
04:58 19.3 °C 18.8 °C 1018.5 hPa Calm     97 % 0 mm
05:03 19.3 °C 18.8 °C 1018.5 hPa Calm     97 % 0 mm
05:08 19.3 °C 18.8 °C 1018.5 hPa Calm     97 % 0 mm
05:13 19.3 °C 18.8 °C 1018.5 hPa Calm     97 % 0 mm
05:18 19.3 °C 18.8 °C 1018.5 hPa Calm     97 % 0 mm
05:23 19.3 °C 18.8 °C 1018.8 hPa Calm     97 % 0 mm
05:28 19.3 °C 18.8 °C 1018.8 hPa Calm     97 % 0 mm
05:33 19.3 °C 18.8 °C 1018.8 hPa Calm     97 % 0 mm
05:38 19.3 °C 18.8 °C 1018.8 hPa Calm     97 % 0 mm
05:43 19.3 °C 18.8 °C 1018.8 hPa Calm     97 % 0 mm
05:48 19.3 °C 18.8 °C 1019.2 hPa Calm     97 % 0 mm
05:53 19.3 °C 18.8 °C 1019.2 hPa Calm     97 % 0 mm
05:58 19.3 °C 18.8 °C 1019.2 hPa Calm     97 % 0 mm
06:04 19.3 °C 18.8 °C 1018.8 hPa Calm     97 % 0 mm
06:09 19.4 °C 18.9 °C 1019.2 hPa Calm     97 % 0 mm
06:14 19.4 °C 18.9 °C 1019.2 hPa Calm     97 % 0 mm
06:19 19.4 °C 18.9 °C 1018.8 hPa Calm     97 % 0 mm
06:24 19.4 °C 18.9 °C 1019.2 hPa Calm     97 % 0 mm
06:29 19.4 °C 18.9 °C 1019.2 hPa Calm     97 % 0 mm
06:34 19.4 °C 18.9 °C 1019.2 hPa Calm     97 % 0 mm
06:39 19.3 °C 18.8 °C 1019.2 hPa Calm     97 % 0 mm
06:44 19.4 °C 18.9 °C 1019.2 hPa Calm     97 % 0 mm
06:49 19.4 °C 18.9 °C 1019.2 hPa Calm     97 % 0 mm
06:54 19.4 °C 18.9 °C 1019.5 hPa Calm     97 % 0 mm
06:59 19.4 °C 18.9 °C 1019.5 hPa Calm     97 % 0 mm
07:05 19.4 °C 18.9 °C 1019.5 hPa Calm     97 % 0 mm
07:10 19.4 °C 18.9 °C 1019.5 hPa Calm     97 % 0 mm
07:15 19.4 °C 18.9 °C 1019.5 hPa Calm     97 % 0 mm
07:20 19.4 °C 18.9 °C 1019.5 hPa Calm     97 % 0 mm
07:25 19.4 °C 18.9 °C 1019.5 hPa Calm     97 % 0 mm
07:30 19.4 °C 18.9 °C 1019.5 hPa Calm     97 % 0 mm
07:35 19.4 °C 18.9 °C 1019.5 hPa Calm     97 % 0 mm
07:40 19.5 °C 19 °C 1019.9 hPa Calm     97 % 0 mm
07:45 19.5 °C 19 °C 1019.9 hPa Calm     97 % 0 mm
07:50 19.6 °C 19.1 °C 1019.9 hPa Calm     97 % 0 mm
07:55 19.6 °C 19.1 °C 1019.9 hPa Calm     97 % 0 mm
08:00 19.6 °C 19.1 °C 1019.9 hPa Calm     97 % 0 mm
08:06 19.7 °C 19.2 °C 1019.9 hPa Calm     97 % 0 mm
08:11 19.7 °C 19.2 °C 1019.9 hPa Calm     97 % 0 mm
08:16 19.8 °C 19.3 °C 1019.9 hPa Calm     97 % 0 mm
08:21 19.8 °C 19.3 °C 1020.2 hPa Calm     97 % 0 mm
08:26 19.9 °C 19.4 °C 1019.9 hPa Calm     97 % 0 mm
08:30 19.9 °C 19.4 °C 1020.2 hPa Calm     97 % 0 mm
08:36 20 °C 19.5 °C 1019.9 hPa Calm     97 % 0 mm
08:41 20.1 °C 19.6 °C 1020.2 hPa Calm     97 % 0 mm
08:46 20.2 °C 19.7 °C 1019.9 hPa Calm     97 % 0 mm
08:51 20.2 °C 19.7 °C 1019.9 hPa Calm     97 % 0 mm
09:01 20.4 °C 20.1 °C 1020.2 hPa SSW 1.8 km/h 3.7 km/h 98 % 0 mm
09:06 20.5 °C 20.2 °C 1020.2 hPa ENE 0.5 km/h 5.6 km/h 98 % 0 mm
09:11 20.6 °C 20.1 °C 1019.9 hPa North 0.2 km/h 5.6 km/h 97 % 0 mm
09:16 20.6 °C 20.3 °C 1019.9 hPa North 0.5 km/h 1.9 km/h 98 % 0 mm
09:26 20.8 °C 20.4 °C 1019.9 hPa Calm   1.9 km/h 98 % 0 mm
09:31 20.8 °C 20.3 °C 1019.9 hPa NNE 3.1 km/h 5.6 km/h 97 % 0 mm
09:36 20.8 °C 20.3 °C 1019.9 hPa Calm   3.7 km/h 97 % 0 mm
09:41 20.8 °C 20.3 °C 1019.9 hPa North 1.6 km/h 3.7 km/h 97 % 0 mm
09:46 20.9 °C 20.4 °C 1019.5 hPa Calm   1.9 km/h 97 % 0 mm
09:51 20.9 °C 20.4 °C 1019.9 hPa Calm   1.9 km/h 97 % 0 mm
10:02 21.1 °C 20.6 °C 1019.9 hPa Calm     97 % 0 mm
10:07 21.1 °C 20.6 °C 1019.9 hPa Calm     97 % 0 mm
10:12 21.1 °C 20.6 °C 1019.5 hPa Calm   1.9 km/h 97 % 0 mm
10:17 21.2 °C 20.7 °C 1019.5 hPa Calm   1.9 km/h 97 % 0 mm
10:22 21.3 °C 20.6 °C 1019.5 hPa North 0.2 km/h 1.9 km/h 96 % 0 mm
10:27 21.3 °C 20.7 °C 1019.5 hPa North 0.3 km/h 3.7 km/h 96 % 0 mm
10:32 21.3 °C 20.7 °C 1019.5 hPa Calm   3.7 km/h 96 % 0 mm
10:34 21.4 °C 20.7 °C 1019.5 hPa Calm     96 % 0 mm
10:40 21.4 °C 20.6 °C 1019.2 hPa NNE 0.2 km/h 1.9 km/h 95 % 0 mm
10:45 21.5 °C 20.5 °C 1019.2 hPa NNE 0.5 km/h 1.9 km/h 94 % 0 mm
10:50 21.6 °C 20.6 °C 1019.2 hPa Calm   1.9 km/h 94 % 0 mm
10:55 21.7 °C 20.7 °C 1019.2 hPa NNE 2.6 km/h 3.7 km/h 94 % 0 mm
11:00 21.8 °C 20.7 °C 1019.2 hPa NNE 1.1 km/h 5.6 km/h 93 % 0 mm
11:05 22 °C 20.7 °C 1018.8 hPa NNE 0.2 km/h 1.9 km/h 92 % 0 mm
11:10 22.1 °C 20.6 °C 1018.8 hPa NE 1.9 km/h 5.6 km/h 91 % 0 mm
11:15 22.3 °C 20.7 °C 1019.2 hPa NNE 1.9 km/h 5.6 km/h 91 % 0 mm
11:20 22.4 °C 20.7 °C 1018.8 hPa NNE 2.9 km/h 8 km/h 90 % 0 mm
11:25 22.6 °C 20.9 °C 1018.8 hPa NNE 0.2 km/h 1.6 km/h 90 % 0 mm
11:30 22.8 °C 20.9 °C 1018.8 hPa Calm   1.9 km/h 89 % 0 mm
11:35 22.8 °C 20.7 °C 1019.2 hPa North 1 km/h 5.6 km/h 88 % 0 mm
11:40 22.9 °C 20.8 °C 1019.2 hPa North 0.6 km/h 3.2 km/h 88 % 0 mm
11:51 23.1 °C 20.8 °C 1019.2 hPa North 3.2 km/h 6.4 km/h 87 % 0 mm
11:56 23.1 °C 21 °C 1019.2 hPa North 1.6 km/h 4.8 km/h 88 % 0 mm
12:01 23.2 °C 20.9 °C 1018.8 hPa North 0.5 km/h 3.7 km/h 87 % 0 mm
12:05 23.2 °C 20.7 °C 1018.8 hPa North 1.6 km/h 8 km/h 86 % 0 mm
12:10 23.3 °C 20.8 °C 1019.2 hPa Calm   4.8 km/h 86 % 0 mm
12:25 23.4 °C 20.9 °C 1019.2 hPa North 1.6 km/h 8 km/h 86 % 0 mm
12:31 23.4 °C 20.7 °C 1019.2 hPa North 3.2 km/h 6.4 km/h 85 % 0 mm
12:35 23.4 °C 20.8 °C 1019.2 hPa North 3.2 km/h 8 km/h 85 % 0 mm
12:40 23.4 °C 20.8 °C 1019.2 hPa NNW 3.2 km/h 8 km/h 85 % 0 mm
12:46 23.4 °C 20.6 °C 1019.2 hPa Calm   6.4 km/h 84 % 0 mm
12:51 23.4 °C 20.8 °C 1018.8 hPa North 4.8 km/h 8 km/h 85 % 0 mm
12:55 23.4 °C 20.9 °C 1019.2 hPa North 0.5 km/h 1.6 km/h 86 % 0 mm
13:01 23.4 °C 20.8 °C 1019.2 hPa NNW 3.9 km/h 5.6 km/h 85 % 0 mm
13:06 23.4 °C 20.8 °C 1019.2 hPa NNW 1.4 km/h 5.6 km/h 85 % 0 mm
13:11 23.4 °C 20.8 °C 1019.2 hPa North 1.3 km/h 5.6 km/h 85 % 0 mm
13:16 23.4 °C 20.9 °C 1019.2 hPa North 4.5 km/h 5.6 km/h 86 % 0 mm
13:21 23.4 °C 20.8 °C 1018.8 hPa North 1.4 km/h 5.6 km/h 85 % 0 mm
13:26 23.4 °C 20.7 °C 1018.8 hPa NNE 1.4 km/h 5.6 km/h 85 % 0 mm
13:31 23.4 °C 20.7 °C 1018.8 hPa NW 1.6 km/h 5.6 km/h 85 % 0 mm
13:36 23.3 °C 20.7 °C 1018.8 hPa North 4 km/h 7.4 km/h 85 % 0 mm
13:41 23.4 °C 20.7 °C 1018.8 hPa NNE 3.7 km/h 8 km/h 85 % 0 mm
13:46 23.4 °C 20.7 °C 1018.5 hPa NNE 2.1 km/h 7.4 km/h 85 % 0 mm
13:51 23.5 °C 20.8 °C 1018.5 hPa NE 1.8 km/h 5.6 km/h 85 % 0 mm
13:56 23.6 °C 20.7 °C 1018.5 hPa ENE 0.6 km/h 5.6 km/h 84 % 0 mm
14:01 23.7 °C 20.7 °C 1018.8 hPa North 4 km/h 7.4 km/h 83 % 0 mm
14:07 23.8 °C 20.9 °C 1018.5 hPa NE 2.1 km/h 6.4 km/h 84 % 0 mm
14:12 23.9 °C 20.9 °C 1018.5 hPa SE 2.3 km/h 6.4 km/h 83 % 0 mm
14:17 24.2 °C 21.1 °C 1018.5 hPa SE 0.8 km/h 5.6 km/h 83 % 0 mm
14:22 24.6 °C 21.3 °C 1018.5 hPa SE 2.4 km/h 5.6 km/h 82 % 0 mm
14:27 24.8 °C 21.7 °C 1018.5 hPa SE 1.3 km/h 4.8 km/h 83 % 0 mm
14:32 25.2 °C 21.7 °C 1018.5 hPa SE 0.2 km/h 1.9 km/h 81 % 0 mm
14:37 25.5 °C 21.4 °C 1018.2 hPa SE 1.3 km/h 3.7 km/h 78 % 0 mm
14:42 25.7 °C 22 °C 1018.5 hPa Calm     80 % 0 mm
14:47 26 °C 21.7 °C 1018.5 hPa ESE 0.2 km/h   77 % 0 mm
14:52 26.2 °C 21.7 °C 1018.2 hPa East 0.3 km/h 1.9 km/h 76 % 0 mm
14:57 26.4 °C 21.6 °C 1018.2 hPa East 1.6 km/h 3.7 km/h 75 % 0 mm
15:02 26.5 °C 21.5 °C 1018.2 hPa ENE 1.4 km/h 5.6 km/h 74 % 0 mm
15:07 26.6 °C 21.8 °C 1018.5 hPa North 4.3 km/h 5.6 km/h 75 % 0 mm
15:12 26.7 °C 22.1 °C 1018.2 hPa North 3.7 km/h 6.4 km/h 76 % 0 mm
15:18 26.8 °C 21.8 °C 1018.2 hPa NE 3.1 km/h 5.6 km/h 74 % 0 mm
15:23 26.8 °C 21.8 °C 1018.2 hPa North 3.5 km/h 6.4 km/h 74 % 0 mm
15:28 26.8 °C 21.6 °C 1017.8 hPa NE 0.8 km/h 5.6 km/h 73 % 0 mm
15:33 26.8 °C 22 °C 1017.8 hPa North 0.6 km/h 3.2 km/h 75 % 0 mm
15:38 26.8 °C 22 °C 1017.8 hPa NNE 1.4 km/h 5.6 km/h 75 % 0 mm
15:43 26.7 °C 21.7 °C 1017.8 hPa NE 0.3 km/h 5.6 km/h 74 % 0 mm
15:48 26.6 °C 21.6 °C 1017.8 hPa ENE 1 km/h 1.9 km/h 74 % 0 mm
15:58 26.3 °C 21.6 °C 1017.8 hPa NE 0.5 km/h 1.9 km/h 75 % 0 mm
16:03 26.3 °C 21.6 °C 1017.8 hPa NE 0.8 km/h 3.7 km/h 75 % 0 mm
16:08 26.3 °C 21.5 °C 1017.8 hPa NNE 2.1 km/h 4.8 km/h 75 % 0 mm
16:13 26.2 °C 21.7 °C 1017.8 hPa NE 1.1 km/h 1.9 km/h 76 % 0 mm
16:18 26.1 °C 21.3 °C 1017.8 hPa NE 1.3 km/h 3.2 km/h 75 % 0 mm
16:24 26 °C 21.2 °C 1017.8 hPa NE 3.1 km/h 5.6 km/h 75 % 0 mm
16:29 25.9 °C 21.2 °C 1017.5 hPa ENE 1.4 km/h 3.7 km/h 75 % 0 mm
16:34 25.8 °C 21.3 °C 1017.5 hPa ENE 3.1 km/h 7.4 km/h 76 % 0 mm
16:39 25.7 °C 21.4 °C 1017.5 hPa ENE 0.6 km/h 3.7 km/h 77 % 0 mm
16:44 25.6 °C 21.3 °C 1017.5 hPa ENE 1 km/h 3.2 km/h 77 % 0 mm
16:49 25.6 °C 21.2 °C 1017.5 hPa ENE 1.9 km/h 5.6 km/h 77 % 0 mm
16:54 25.4 °C 21.1 °C 1017.5 hPa ENE 0.2 km/h 1.9 km/h 77 % 0 mm
16:59 25.3 °C 21.2 °C 1017.5 hPa ENE 0.2 km/h 1.9 km/h 78 % 0 mm
17:04 25.2 °C 21.1 °C 1017.5 hPa ENE 0.2 km/h 1.9 km/h 78 % 0 mm
17:09 25.1 °C 20.9 °C 1017.5 hPa ENE 1 km/h 3.7 km/h 78 % 0 mm
17:14 25 °C 20.9 °C 1017.5 hPa Calm     78 % 0 mm
17:25 24.8 °C 20.9 °C 1017.5 hPa Calm   1.6 km/h 79 % 0 mm
17:30 24.8 °C 20.9 °C 1017.2 hPa Calm     79 % 0 mm
17:35 24.7 °C 20.6 °C 1017.5 hPa Calm     78 % 0 mm
17:40 24.7 °C 20.6 °C 1017.5 hPa Calm   1.9 km/h 78 % 0 mm
17:41 24.7 °C 20.6 °C 1017.5 hPa Calm     78 % 0 mm
17:46 24.7 °C 20.6 °C 1017.2 hPa SE 1.8 km/h 5.6 km/h 78 % 0 mm
17:51 24.7 °C 20.8 °C 1017.5 hPa SE 2.1 km/h 5.6 km/h 79 % 0 mm
17:56 24.7 °C 21 °C 1017.2 hPa SSE 1.6 km/h 3.2 km/h 80 % 0 mm
18:01 24.6 °C 21.1 °C 1017.5 hPa SSE 0.6 km/h 1.9 km/h 81 % 0 mm
18:07 24.6 °C 21.1 °C 1017.5 hPa SE 5.8 km/h 11.1 km/h 81 % 0 mm
18:12 24.4 °C 20.9 °C 1017.5 hPa SE 2.7 km/h 9.7 km/h 81 % 0 mm
18:17 24.2 °C 20.8 °C 1017.5 hPa SE 5.6 km/h 9.7 km/h 81 % 0 mm
18:22 23.9 °C 20.7 °C 1017.5 hPa SE 3.9 km/h 5.6 km/h 82 % 0 mm
18:27 23.8 °C 20.6 °C 1017.5 hPa SE 2.3 km/h 7.4 km/h 82 % 0 mm
18:32 23.7 °C 20.4 °C 1017.5 hPa SE 1 km/h 5.6 km/h 82 % 0 mm
18:43 23.3 °C 20.2 °C 1017.5 hPa SSE 1.8 km/h 7.4 km/h 83 % 0 mm
18:48 23.2 °C 20.1 °C 1017.5 hPa Calm   1.9 km/h 83 % 0 mm
18:53 23.1 °C 20 °C 1017.5 hPa SE 4.7 km/h 11.1 km/h 83 % 0 mm
18:58 22.8 °C 19.9 °C 1017.5 hPa Calm   3.7 km/h 84 % 0 mm
19:03 22.6 °C 19.8 °C 1017.5 hPa Calm     84 % 0 mm
19:08 22.5 °C 19.7 °C 1017.2 hPa SE 2.4 km/h 5.6 km/h 84 % 0 mm
19:13 22.3 °C 19.7 °C 1017.2 hPa SE 2.7 km/h 9.3 km/h 85 % 0 mm
19:18 22.1 °C 19.4 °C 1017.2 hPa SE 5.1 km/h 9.3 km/h 85 % 0 mm
19:23 21.8 °C 19.4 °C 1017.5 hPa SE 2.1 km/h 3.7 km/h 86 % 0 mm
19:33 21.5 °C 19.2 °C 1017.5 hPa SE 2.1 km/h 5.6 km/h 87 % 0 mm
19:38 21.3 °C 19.3 °C 1017.5 hPa SE 2.1 km/h 4.8 km/h 88 % 0 mm
19:44 21.2 °C 19.3 °C 1017.5 hPa SE 1.6 km/h 5.6 km/h 89 % 0 mm
19:49 21 °C 19.1 °C 1017.5 hPa SE 2.6 km/h 9.3 km/h 89 % 0 mm
19:54 20.9 °C 19.2 °C 1017.5 hPa SE 8.2 km/h 14.8 km/h 90 % 0 mm
19:59 20.8 °C 19.1 °C 1017.5 hPa SE 1.3 km/h 5.6 km/h 90 % 0 mm
20:04 20.7 °C 19 °C 1017.8 hPa SE 4 km/h 7.4 km/h 90 % 0 mm
20:09 20.6 °C 19.1 °C 1017.8 hPa SE 4.7 km/h 9.7 km/h 91 % 0 mm
20:14 20.6 °C 19.1 °C 1017.8 hPa Calm     91 % 0 mm
20:19 20.5 °C 19 °C 1017.8 hPa SE 0.5 km/h 3.7 km/h 91 % 0 mm
20:24 20.4 °C 18.9 °C 1017.8 hPa Calm   1.9 km/h 91 % 0 mm
20:29 20.4 °C 18.9 °C 1017.8 hPa SE 0.2 km/h 3.2 km/h 91 % 0 mm
20:34 20.3 °C 18.8 °C 1017.8 hPa Calm     91 % 0 mm
20:44 20.2 °C 18.9 °C 1017.8 hPa Calm     92 % 0 mm
20:50 20.2 °C 18.7 °C 1017.8 hPa Calm     91 % 0 mm
20:55 20.1 °C 18.6 °C 1018.2 hPa Calm     91 % 0 mm
21:00 20.1 °C 18.6 °C 1018.2 hPa Calm     91 % 0 mm
21:05 20 °C 18.5 °C 1018.2 hPa Calm     91 % 0 mm
21:15 19.9 °C 18.6 °C 1017.8 hPa Calm     92 % 0 mm
21:20 19.9 °C 18.6 °C 1018.2 hPa Calm     92 % 0 mm
21:25 19.9 °C 18.6 °C 1018.2 hPa Calm     92 % 0 mm
21:30 19.8 °C 18.5 °C 1018.2 hPa Calm     92 % 0 mm
21:35 19.8 °C 18.7 °C 1018.2 hPa SE 1.8 km/h 1.9 km/h 93 % 0 mm
21:40 19.8 °C 18.6 °C 1018.2 hPa SE 1.6 km/h 1.9 km/h 93 % 0 mm
21:46 19.8 °C 18.6 °C 1018.2 hPa Calm   3.7 km/h 93 % 0 mm
21:51 19.7 °C 18.6 °C 1018.2 hPa Calm     93 % 0 mm
21:56 19.7 °C 18.6 °C 1018.2 hPa Calm   4.8 km/h 93 % 0 mm
22:01 19.7 °C 18.5 °C 1018.5 hPa Calm     93 % 0 mm
22:06 19.7 °C 18.5 °C 1018.5 hPa Calm     93 % 0 mm
22:11 19.7 °C 18.5 °C 1018.5 hPa Calm     93 % 0 mm
22:16 19.6 °C 18.4 °C 1018.5 hPa Calm     93 % 0 mm
22:21 19.6 °C 18.4 °C 1018.5 hPa Calm     93 % 0 mm
22:26 19.6 °C 18.4 °C 1018.5 hPa Calm     93 % 0 mm
22:31 19.6 °C 18.4 °C 1018.5 hPa Calm     93 % 0 mm
22:36 19.6 °C 18.4 °C 1018.5 hPa Calm     93 % 0 mm
22:41 19.6 °C 18.4 °C 1018.5 hPa Calm     93 % 0 mm
22:51 19.6 °C 18.4 °C 1018.5 hPa Calm     93 % 0 mm
22:56 19.6 °C 18.4 °C 1018.5 hPa Calm     93 % 0 mm
23:01 19.6 °C 18.4 °C 1018.5 hPa Calm     93 % 0 mm
23:07 19.6 °C 18.4 °C 1018.5 hPa Calm     93 % 0 mm
23:13 19.6 °C 18.4 °C 1018.5 hPa Calm     93 % 0 mm
23:18 19.6 °C 18.4 °C 1018.5 hPa Calm     93 % 0 mm
23:20 19.6 °C 18.4 °C 1018.5 hPa Calm     93 % 0 mm
23:24 19.6 °C 18.4 °C 1018.5 hPa Calm     93 % 0 mm
23:25 19.6 °C 18.4 °C 1018.5 hPa Calm     93 % 0 mm
23:30 19.6 °C 18.4 °C 1018.5 hPa SE 0.2 km/h 1.9 km/h 93 % 0 mm
23:35 19.6 °C 18.4 °C 1018.5 hPa Calm     93 % 0 mm
23:41 19.6 °C 18.4 °C 1018.5 hPa SE 1 km/h   93 % 0 mm
23:51 19.7 °C 18.7 °C 1018.5 hPa Calm     94 % 0 mm
23:56 19.7 °C 18.7 °C 1018.5 hPa Calm   1.6 km/h 94 % 0 mm
Crab Meadow Weather
Compliments of Weather Underground - 3 mb

Script developed by  Jim McMurry - jmcmurry@mwt.net Adapted for the template by  Wim van der Kuil - Leuven-Template.eu

Weather Terms: Heat Advisory - Maximum heat index of 105 to 110°F with a minimum of 75°F for two or more consecutive days.